createdAt,value
2018-03-27T00:00:54.923Z,46.23
2018-03-27T00:03:23.209Z,45.23
2018-03-27T00:05:51.539Z,42.40
2018-03-27T00:08:20.577Z,42.23
2018-03-27T00:10:48.836Z,43.23
2018-03-27T00:13:17.861Z,42.83
2018-03-27T00:15:46.145Z,42.23
2018-03-27T00:18:15.212Z,44.43
2018-03-27T00:20:43.482Z,43.43
2018-03-27T00:23:11.752Z,37.97
2018-03-27T00:25:40.033Z,39.17
2018-03-27T00:28:26.164Z,41.63
2018-03-27T00:31:12.076Z,36.07
2018-03-27T00:33:58.220Z,41.17
2018-03-27T00:36:45.121Z,41.23
2018-03-27T00:39:31.796Z,42.47
2018-03-27T00:45:03.223Z,40.07
2018-03-27T00:47:31.488Z,40.57
2018-03-27T00:49:59.793Z,41.13
2018-03-27T00:52:28.052Z,43.20
2018-03-27T00:54:57.129Z,47.53
2018-03-27T00:57:26.368Z,43.20
2018-03-27T00:59:55.427Z,44.93
2018-03-27T01:02:23.747Z,45.60
2018-03-27T01:04:52.025Z,46.27
2018-03-27T01:07:20.293Z,39.57
2018-03-27T01:09:48.598Z,41.57
2018-03-27T01:12:16.852Z,41.87
2018-03-27T01:14:45.133Z,46.70
2018-03-27T01:17:13.427Z,51.47
2018-03-27T01:19:41.742Z,43.10
2018-03-27T01:22:10.010Z,44.97
2018-03-27T01:24:38.278Z,45.83
2018-03-27T01:27:06.576Z,47.50
2018-03-27T01:29:35.596Z,42.93
2018-03-27T01:32:03.872Z,45.10
2018-03-27T01:34:32.133Z,43.17
2018-03-27T01:37:00.413Z,39.77
2018-03-27T01:39:28.685Z,40.70
2018-03-27T01:41:56.984Z,40.47
2018-03-27T01:44:25.332Z,42.97
2018-03-27T01:46:54.457Z,40.13
2018-03-27T01:49:23.491Z,39.67
2018-03-27T01:51:51.822Z,42.40
2018-03-27T01:54:20.080Z,40.37
2018-03-27T01:56:48.348Z,41.03
2018-03-27T01:59:16.608Z,41.40
2018-03-27T02:01:44.923Z,43.33
2018-03-27T02:04:13.204Z,41.10
2018-03-27T02:06:42.404Z,39.77
2018-03-27T02:09:10.665Z,39.40
2018-03-27T02:11:44.461Z,43.80
2018-03-27T02:14:18.187Z,39.70
2018-03-27T02:16:52.857Z,39.70
2018-03-27T02:19:26.560Z,43.57
2018-03-27T02:21:54.212Z,41.13
2018-03-27T02:24:24.067Z,43.03
2018-03-27T02:26:52.349Z,42.37
2018-03-27T02:29:20.639Z,39.10
2018-03-27T02:31:48.897Z,41.80
2018-03-27T02:34:17.194Z,39.03
2018-03-27T02:36:46.229Z,42.17
2018-03-27T02:39:14.537Z,39.37
2018-03-27T02:41:42.842Z,38.87
2018-03-27T02:44:11.113Z,37.87
2018-03-27T02:46:39.379Z,40.17
2018-03-27T02:49:07.656Z,37.83
2018-03-27T02:51:36.679Z,44.50
2018-03-27T02:54:04.965Z,37.93
2018-03-27T02:56:33.236Z,36.43
2018-03-27T02:59:02.283Z,38.47
2018-03-27T03:01:30.553Z,40.77
2018-03-27T03:03:58.853Z,37.80
2018-03-27T03:06:27.133Z,39.50
2018-03-27T03:08:55.461Z,35.10
2018-03-27T03:11:23.731Z,40.87
2018-03-27T03:13:52.054Z,43.17
2018-03-27T03:16:20.307Z,37.70
2018-03-27T03:18:48.581Z,41.27
2018-03-27T03:21:16.840Z,37.40
2018-03-27T03:23:45.128Z,34.97
2018-03-27T03:26:13.452Z,39.53
2018-03-27T03:28:41.740Z,40.90
2018-03-27T03:31:10.162Z,40.83
2018-03-27T03:33:39.203Z,41.00
2018-03-27T03:36:07.491Z,43.83
2018-03-27T03:38:35.745Z,38.43
2018-03-27T03:41:04.028Z,39.77
2018-03-27T03:43:32.293Z,37.80
2018-03-27T03:46:00.571Z,41.10
2018-03-27T03:48:29.612Z,34.17
2018-03-27T03:50:57.930Z,40.83
2018-03-27T03:53:26.286Z,41.93
2018-03-27T03:55:54.597Z,42.20
2018-03-27T03:58:22.857Z,35.17
2018-03-27T04:00:51.146Z,40.10
2018-03-27T04:03:19.412Z,41.50
2018-03-27T04:05:48.449Z,44.87
2018-03-27T04:08:17.484Z,43.03
2018-03-27T04:10:45.757Z,42.60
2018-03-27T04:13:14.048Z,40.20
2018-03-27T04:15:43.112Z,39.50
2018-03-27T04:18:12.146Z,48.27
2018-03-27T04:20:40.530Z,42.80
2018-03-27T04:23:08.908Z,45.33
2018-03-27T04:25:37.994Z,32.07
2018-03-27T04:28:07.030Z,40.97
2018-03-27T04:30:36.074Z,43.77
2018-03-27T04:33:04.320Z,44.97
2018-03-27T04:35:33.377Z,48.50
2018-03-27T04:38:01.640Z,41.63
2018-03-27T04:40:29.931Z,42.10
2018-03-27T04:42:58.265Z,37.57
2018-03-27T04:45:26.570Z,38.13
2018-03-27T04:47:55.642Z,39.13
2018-03-27T04:50:23.944Z,44.37
2018-03-27T04:52:52.210Z,40.63
2018-03-27T04:55:20.482Z,41.73
2018-03-27T04:57:48.749Z,45.37
2018-03-27T05:00:17.798Z,43.80
2018-03-27T05:02:46.055Z,43.33
2018-03-27T05:05:14.448Z,38.93
2018-03-27T05:07:42.768Z,42.90
2018-03-27T05:10:11.044Z,39.23
2018-03-27T05:12:39.309Z,39.77
2018-03-27T05:15:07.568Z,41.30
2018-03-27T05:17:35.841Z,45.40
2018-03-27T05:20:04.092Z,40.10
2018-03-27T05:22:32.352Z,43.37
2018-03-27T05:25:01.383Z,42.27
2018-03-27T05:27:30.805Z,44.13
2018-03-27T05:29:59.096Z,43.40
2018-03-27T05:32:27.404Z,40.37
2018-03-27T05:34:55.715Z,37.83
2018-03-27T05:37:24.863Z,46.83
2018-03-27T05:39:53.126Z,48.57
2018-03-27T05:42:21.446Z,46.37
2018-03-27T05:44:49.700Z,44.60
2018-03-27T05:47:17.980Z,43.57
2018-03-27T05:49:46.249Z,51.10
2018-03-27T05:52:14.745Z,45.73
2018-03-27T05:54:43.014Z,46.00
2018-03-27T05:57:11.301Z,52.90
2018-03-27T05:59:39.616Z,49.43
2018-03-27T06:02:07.897Z,39.10
2018-03-27T06:04:36.164Z,45.90
2018-03-27T06:07:04.467Z,49.60
2018-03-27T06:09:32.726Z,46.67
2018-03-27T06:12:01.764Z,42.77
2018-03-27T06:14:30.036Z,44.73
2018-03-27T06:16:58.427Z,42.17
2018-03-27T06:19:27.494Z,41.97
2018-03-27T06:21:55.773Z,40.33
2018-03-27T06:24:24.148Z,42.43
2018-03-27T06:26:52.424Z,36.57
2018-03-27T06:29:20.705Z,35.27
2018-03-27T06:31:48.990Z,37.07
2018-03-27T06:34:17.250Z,35.70
2018-03-27T06:36:46.380Z,35.77
2018-03-27T06:39:14.675Z,36.03
2018-03-27T06:41:42.996Z,35.40
2018-03-27T06:44:12.021Z,37.50
2018-03-27T06:46:40.296Z,35.80
2018-03-27T06:49:08.567Z,33.90
2018-03-27T06:51:36.824Z,36.50
2018-03-27T06:54:05.866Z,34.00
2018-03-27T06:56:34.132Z,34.20
2018-03-27T06:59:02.445Z,34.20
2018-03-27T07:01:30.764Z,35.20
2018-03-27T07:03:59.070Z,36.10
2018-03-27T07:06:28.108Z,31.33
2018-03-27T07:08:56.461Z,29.07
2018-03-27T07:11:24.787Z,28.33
2018-03-27T07:13:53.083Z,31.20
2018-03-27T07:16:21.385Z,32.67
2018-03-27T07:18:49.692Z,29.20
2018-03-27T07:21:18.012Z,32.17
2018-03-27T07:23:46.231Z,34.10
2018-03-27T07:26:14.537Z,34.17
2018-03-27T07:28:42.851Z,34.27
2018-03-27T07:31:11.114Z,33.77
2018-03-27T07:33:39.408Z,31.70
2018-03-27T07:36:07.668Z,31.70
2018-03-27T07:38:36.720Z,31.27
2018-03-27T07:41:05.249Z,29.77
2018-03-27T07:43:33.573Z,31.20
2018-03-27T07:46:01.837Z,32.70
2018-03-27T07:48:30.224Z,30.13
2018-03-27T07:50:58.517Z,29.60
2018-03-27T07:53:26.884Z,29.83
2018-03-27T07:55:56.155Z,29.70
2018-03-27T07:58:24.557Z,30.13
2018-03-27T08:00:52.833Z,29.13
2018-03-27T08:03:21.133Z,34.57
2018-03-27T08:05:49.388Z,26.60
2018-03-27T08:08:18.468Z,30.63
2018-03-27T08:10:46.895Z,26.93
2018-03-27T08:13:15.257Z,29.13
2018-03-27T08:15:43.544Z,26.97
2018-03-27T08:18:11.820Z,27.67
2018-03-27T08:20:40.214Z,28.30
2018-03-27T08:23:08.474Z,22.73
2018-03-27T08:25:36.752Z,18.97
2018-03-27T08:28:04.999Z,20.63
2018-03-27T08:30:33.276Z,19.73
2018-03-27T08:33:01.565Z,17.97
2018-03-27T08:35:29.877Z,16.93
2018-03-27T08:37:58.208Z,14.47
2018-03-27T08:40:26.591Z,16.20
2018-03-27T08:42:54.948Z,17.10
2018-03-27T08:45:24.080Z,20.07
2018-03-27T08:47:52.368Z,16.73
2018-03-27T08:50:21.412Z,15.60
2018-03-27T08:52:49.707Z,16.73
2018-03-27T08:55:17.991Z,16.37
2018-03-27T08:57:46.265Z,15.77
2018-03-27T09:00:14.568Z,16.40
2018-03-27T09:02:42.853Z,15.70
2018-03-27T09:05:11.138Z,15.93
2018-03-27T09:07:39.484Z,18.00
2018-03-27T09:10:08.542Z,18.60
2018-03-27T09:12:36.805Z,16.10
2018-03-27T09:15:05.928Z,16.77
2018-03-27T09:17:34.193Z,17.83
2018-03-27T09:20:03.268Z,17.07
2018-03-27T09:22:31.536Z,16.73
2018-03-27T09:24:59.859Z,18.00
2018-03-27T09:27:28.168Z,19.03
2018-03-27T09:29:57.285Z,19.63
2018-03-27T09:32:26.480Z,15.27
2018-03-27T09:34:55.597Z,15.43
2018-03-27T09:37:24.041Z,15.07
2018-03-27T09:39:52.327Z,13.03
2018-03-27T09:42:20.593Z,13.40
2018-03-27T09:44:48.869Z,13.97
2018-03-27T09:47:17.210Z,12.77
2018-03-27T09:49:46.282Z,13.13
2018-03-27T09:52:14.648Z,14.93
2018-03-27T09:54:43.680Z,13.10
2018-03-27T09:57:12.075Z,11.73
2018-03-27T09:59:40.354Z,11.87
2018-03-27T10:02:09.396Z,11.77
2018-03-27T10:04:37.682Z,13.27
2018-03-27T10:07:06.014Z,12.53
2018-03-27T10:09:35.424Z,14.80
2018-03-27T10:12:03.707Z,11.77
2018-03-27T10:14:31.956Z,14.90
2018-03-27T10:17:00.257Z,10.30
2018-03-27T10:19:28.556Z,11.33
2018-03-27T10:21:56.928Z,14.67
2018-03-27T10:24:26.012Z,11.33
2018-03-27T10:26:54.305Z,11.70
2018-03-27T10:29:22.579Z,12.00
2018-03-27T10:31:50.884Z,11.30
2018-03-27T10:34:19.171Z,12.63
2018-03-27T10:36:47.561Z,13.33
2018-03-27T10:39:15.860Z,16.70
2018-03-27T10:41:44.947Z,13.20
2018-03-27T10:44:14.075Z,13.77
2018-03-27T10:46:42.424Z,12.57
2018-03-27T10:49:10.683Z,12.77
2018-03-27T10:51:39.000Z,12.93
2018-03-27T10:54:08.036Z,15.50
2018-03-27T10:56:37.084Z,15.07
2018-03-27T10:59:05.341Z,13.13
2018-03-27T11:01:33.617Z,16.17
2018-03-27T11:04:03.772Z,13.97
2018-03-27T11:06:32.056Z,15.47
2018-03-27T11:09:00.408Z,13.60
2018-03-27T11:11:29.509Z,15.87
2018-03-27T11:13:57.828Z,14.37
2018-03-27T11:16:26.942Z,18.00
2018-03-27T11:18:55.264Z,14.00
2018-03-27T11:21:23.602Z,15.33
2018-03-27T11:23:51.903Z,15.17
2018-03-27T11:26:20.936Z,15.77
2018-03-27T11:28:49.225Z,17.60
2018-03-27T11:31:17.493Z,13.93
2018-03-27T11:33:46.552Z,14.90
2018-03-27T11:36:14.864Z,12.00
2018-03-27T11:38:43.210Z,12.73
2018-03-27T11:41:11.485Z,15.37
2018-03-27T11:43:39.776Z,14.37
2018-03-27T11:46:09.045Z,13.00
2018-03-27T11:48:37.344Z,13.73
2018-03-27T11:51:05.600Z,17.23
2018-03-27T11:53:34.640Z,14.23
2018-03-27T11:56:02.920Z,16.10
2018-03-27T11:58:31.997Z,15.47
2018-03-27T12:01:00.289Z,13.17
2018-03-27T12:03:29.361Z,15.00
2018-03-27T12:05:58.530Z,10.77
2018-03-27T12:08:26.991Z,15.27
2018-03-27T12:10:55.339Z,11.47
2018-03-27T12:13:23.689Z,9.13
2018-03-27T12:15:51.942Z,10.60
2018-03-27T12:18:20.265Z,11.20
2018-03-27T12:20:49.311Z,10.50
2018-03-27T12:23:17.604Z,12.57
2018-03-27T12:25:45.885Z,10.63
2018-03-27T12:28:14.953Z,11.80
2018-03-27T12:30:44.004Z,12.27
2018-03-27T12:33:12.285Z,11.80
2018-03-27T12:35:40.548Z,11.60
2018-03-27T12:38:08.856Z,14.23
2018-03-27T12:40:37.189Z,11.63
2018-03-27T12:43:06.233Z,13.37
2018-03-27T12:45:35.269Z,14.13
2018-03-27T12:48:03.540Z,13.63
2018-03-27T12:50:31.817Z,12.83
2018-03-27T12:53:00.121Z,14.10
2018-03-27T12:55:29.229Z,11.17
2018-03-27T12:57:57.582Z,11.90
2018-03-27T13:00:25.922Z,11.97
2018-03-27T13:02:55.058Z,10.33
2018-03-27T13:05:23.382Z,9.17
2018-03-27T13:07:51.682Z,7.37
2018-03-27T13:10:20.031Z,7.57
2018-03-27T13:12:48.352Z,8.20
2018-03-27T13:15:16.653Z,8.23
2018-03-27T13:17:45.010Z,9.33
2018-03-27T13:20:13.264Z,8.63
2018-03-27T13:22:42.332Z,9.13
2018-03-27T13:25:10.615Z,9.53
2018-03-27T13:27:38.882Z,8.47
2018-03-27T13:30:07.177Z,18.83
2018-03-27T13:32:35.452Z,10.50
2018-03-27T13:35:04.509Z,8.70
2018-03-27T13:37:32.784Z,9.97
2018-03-27T13:40:01.088Z,11.97
2018-03-27T13:42:29.377Z,10.17
2018-03-27T13:44:57.768Z,9.33
2018-03-27T13:47:26.181Z,8.70
2018-03-27T13:49:54.673Z,7.73
2018-03-27T13:52:23.099Z,9.10
2018-03-27T13:54:51.398Z,13.10
2018-03-27T13:57:19.657Z,8.90
2018-03-27T13:59:47.955Z,9.53
2018-03-27T14:02:16.520Z,7.83
2018-03-27T14:04:44.838Z,8.77
2018-03-27T14:07:13.900Z,9.83
2018-03-27T14:09:42.311Z,7.77
2018-03-27T14:12:10.545Z,8.90
2018-03-27T14:14:39.577Z,7.20
2018-03-27T14:17:07.836Z,12.83
2018-03-27T14:19:37.032Z,11.03
2018-03-27T14:22:05.262Z,8.53
2018-03-27T14:24:33.535Z,10.33
2018-03-27T14:27:01.796Z,9.07
2018-03-27T14:29:30.200Z,8.07
2018-03-27T14:31:58.676Z,8.13
2018-03-27T14:34:27.085Z,14.70
2018-03-27T14:36:55.563Z,10.43
2018-03-27T14:39:23.929Z,10.90
2018-03-27T14:41:53.050Z,10.77
2018-03-27T14:44:22.819Z,9.23
2018-03-27T14:46:51.085Z,8.20
2018-03-27T14:49:20.116Z,7.57
2018-03-27T14:51:48.400Z,8.23
2018-03-27T14:54:17.443Z,9.80
2018-03-27T14:56:45.760Z,10.43
2018-03-27T14:59:14.050Z,8.23
2018-03-27T15:01:42.340Z,8.93
2018-03-27T15:04:10.692Z,9.80
2018-03-27T15:06:39.061Z,7.93
2018-03-27T15:09:08.190Z,7.40
2018-03-27T15:11:36.497Z,8.60
2018-03-27T15:14:04.779Z,9.67
2018-03-27T15:16:33.053Z,7.60
2018-03-27T15:19:01.329Z,8.80
2018-03-27T15:21:30.475Z,9.30
2018-03-27T15:23:58.893Z,9.57
2018-03-27T15:26:27.313Z,8.77
2018-03-27T15:28:56.133Z,8.23
2018-03-27T15:31:24.586Z,10.57
2018-03-27T15:33:53.682Z,8.53
2018-03-27T15:36:22.743Z,9.60
2018-03-27T15:38:51.011Z,8.80
2018-03-27T15:41:20.853Z,9.67
2018-03-27T15:43:49.116Z,9.10
2018-03-27T15:46:18.237Z,11.77
2018-03-27T15:48:47.362Z,9.30
2018-03-27T15:51:15.784Z,9.57
2018-03-27T15:53:44.846Z,10.90
2018-03-27T15:56:13.938Z,11.80
2018-03-27T15:58:43.606Z,9.77
2018-03-27T16:01:12.006Z,10.93
2018-03-27T16:03:40.291Z,10.23
2018-03-27T16:06:09.322Z,8.87
2018-03-27T16:08:37.626Z,12.27
2018-03-27T16:11:05.902Z,12.17
2018-03-27T16:13:34.958Z,11.10
2018-03-27T16:16:04.020Z,10.77
2018-03-27T16:18:32.403Z,11.97
2018-03-27T16:21:00.723Z,9.17
2018-03-27T16:23:29.895Z,10.57
2018-03-27T16:25:58.288Z,9.73
2018-03-27T16:28:26.645Z,12.93
2018-03-27T16:30:55.306Z,13.17
2018-03-27T16:33:23.642Z,10.67
2018-03-27T16:35:52.036Z,13.27
2018-03-27T16:38:20.319Z,10.77
2018-03-27T16:40:49.353Z,11.40
2018-03-27T16:43:17.666Z,14.97
2018-03-27T16:45:46.736Z,13.13
2018-03-27T16:48:15.085Z,10.73
2018-03-27T16:50:43.409Z,11.23
2018-03-27T16:53:12.467Z,11.47
2018-03-27T16:55:40.756Z,11.13
2018-03-27T16:58:09.031Z,13.47
2018-03-27T17:00:38.098Z,11.83
2018-03-27T17:03:06.383Z,12.43
2018-03-27T17:05:34.655Z,15.30
2018-03-27T17:08:03.749Z,10.33
2018-03-27T17:10:32.018Z,11.40
2018-03-27T17:13:00.311Z,9.87
2018-03-27T17:15:28.662Z,11.63
2018-03-27T17:17:57.127Z,12.77
2018-03-27T17:20:26.215Z,10.47
2018-03-27T17:22:54.528Z,12.07
2018-03-27T17:25:23.614Z,9.43
2018-03-27T17:27:51.875Z,11.57
2018-03-27T17:30:20.184Z,13.47
2018-03-27T17:32:49.991Z,11.67
2018-03-27T17:35:19.197Z,13.97
2018-03-27T17:37:48.437Z,12.73
2018-03-27T17:40:16.783Z,12.03
2018-03-27T17:42:45.048Z,11.23
2018-03-27T17:45:14.103Z,12.90
2018-03-27T17:47:42.337Z,9.70
2018-03-27T17:50:11.381Z,11.60
2018-03-27T17:52:39.680Z,12.07
2018-03-27T17:55:07.962Z,14.27
2018-03-27T17:57:36.218Z,12.97
2018-03-27T18:00:05.269Z,12.87
2018-03-27T18:02:33.538Z,12.00
2018-03-27T18:05:01.920Z,12.03
2018-03-27T18:07:30.233Z,12.53
2018-03-27T18:09:58.562Z,16.53
2018-03-27T18:12:26.873Z,12.20
2018-03-27T18:14:56.370Z,13.27
2018-03-27T18:17:24.731Z,13.10
2018-03-27T18:19:53.047Z,12.17
2018-03-27T18:22:21.330Z,14.80
2018-03-27T18:24:49.661Z,20.37
2018-03-27T18:27:18.695Z,10.93
2018-03-27T18:29:47.023Z,13.93
2018-03-27T18:32:15.298Z,13.70
2018-03-27T18:34:43.576Z,14.37
2018-03-27T18:37:11.825Z,19.80
2018-03-27T18:39:43.651Z,13.27
2018-03-27T18:42:12.005Z,14.87
2018-03-27T18:44:40.314Z,12.93
2018-03-27T18:47:08.866Z,14.43
2018-03-27T18:49:37.875Z,16.17
2018-03-27T18:52:06.924Z,14.47
2018-03-27T18:54:35.173Z,13.80
2018-03-27T18:57:04.246Z,14.47
2018-03-27T18:59:32.530Z,15.80
2018-03-27T19:02:00.849Z,15.90
2018-03-27T19:04:29.923Z,15.37
2018-03-27T19:06:58.247Z,24.83
2018-03-27T19:09:26.552Z,14.07
2018-03-27T19:11:54.971Z,18.50
2018-03-27T19:14:23.264Z,14.87
2018-03-27T19:16:52.267Z,13.97
2018-03-27T19:19:20.529Z,16.50
2018-03-27T19:21:48.951Z,13.80
2018-03-27T19:24:17.205Z,15.57
2018-03-27T19:26:46.268Z,14.27
2018-03-27T19:29:14.603Z,18.30
2018-03-27T19:31:42.945Z,18.27
2018-03-27T19:34:11.228Z,14.70
2018-03-27T19:36:39.507Z,17.33
2018-03-27T19:39:07.759Z,15.57
2018-03-27T19:41:36.816Z,15.47
2018-03-27T19:44:05.853Z,14.70
2018-03-27T19:46:34.120Z,16.77
2018-03-27T19:49:02.380Z,16.03
2018-03-27T19:51:30.662Z,14.17
2018-03-27T19:53:58.965Z,16.97
2018-03-27T19:56:27.292Z,15.93
2018-03-27T19:58:55.606Z,14.23
2018-03-27T20:01:24.706Z,15.57
2018-03-27T20:03:52.990Z,15.10
2018-03-27T20:06:22.034Z,15.77
2018-03-27T20:08:50.453Z,15.27
2018-03-27T20:11:18.737Z,18.27
2018-03-27T20:13:47.074Z,19.00
2018-03-27T20:16:15.459Z,15.23
2018-03-27T20:18:43.753Z,14.43
2018-03-27T20:21:12.797Z,16.80
2018-03-27T20:23:41.084Z,16.20
2018-03-27T20:26:10.121Z,14.67
2018-03-27T20:28:38.451Z,15.83
2018-03-27T20:31:06.749Z,15.27
2018-03-27T20:33:35.876Z,19.17
2018-03-27T20:36:04.155Z,18.27
2018-03-27T20:38:33.224Z,17.20
2018-03-27T20:41:01.480Z,21.17
2018-03-27T20:43:29.833Z,17.13
2018-03-27T20:45:58.179Z,21.57
2018-03-27T20:48:26.552Z,19.47
2018-03-27T20:50:54.878Z,15.67
2018-03-27T20:53:23.160Z,19.10
2018-03-27T20:55:52.272Z,18.13
2018-03-27T20:58:20.565Z,18.13
2018-03-27T21:00:50.413Z,18.70
2018-03-27T21:03:18.751Z,18.93
2018-03-27T21:05:47.160Z,18.47
2018-03-27T21:08:15.585Z,20.47
2018-03-27T21:10:44.669Z,19.73
2018-03-27T21:13:13.013Z,19.77
2018-03-27T21:15:42.036Z,17.33
2018-03-27T21:18:10.326Z,17.97
2018-03-27T21:20:39.942Z,18.90
2018-03-27T21:23:08.237Z,20.00
2018-03-27T21:25:36.528Z,18.10
2018-03-27T21:28:04.799Z,18.93
2018-03-27T21:30:34.565Z,19.17
2018-03-27T21:33:03.582Z,14.83
2018-03-27T21:35:32.613Z,17.23
2018-03-27T21:38:00.963Z,19.07
2018-03-27T21:40:29.389Z,15.87
2018-03-27T21:42:57.688Z,16.40
2018-03-27T21:45:26.082Z,15.17
2018-03-27T21:47:55.260Z,18.27
2018-03-27T21:50:23.563Z,14.77
2018-03-27T21:52:51.909Z,15.93
2018-03-27T21:55:20.174Z,15.33
2018-03-27T21:57:49.198Z,15.77
2018-03-27T22:00:17.473Z,16.93
2018-03-27T22:02:46.574Z,15.93
2018-03-27T22:05:15.654Z,19.30
2018-03-27T22:07:43.907Z,17.20
2018-03-27T22:10:12.178Z,17.40
2018-03-27T22:12:40.451Z,16.20
2018-03-27T22:15:09.472Z,14.53
2018-03-27T22:17:37.787Z,15.13
2018-03-27T22:20:06.097Z,13.23
2018-03-27T22:22:34.356Z,14.40
2018-03-27T22:25:02.627Z,15.80
2018-03-27T22:27:31.924Z,12.97
2018-03-27T22:30:01.053Z,12.13
2018-03-27T22:32:30.080Z,14.93
2018-03-27T22:34:58.452Z,11.77
2018-03-27T22:37:27.641Z,14.13
2018-03-27T22:39:56.080Z,15.70
2018-03-27T22:42:24.591Z,15.90
2018-03-27T22:44:52.951Z,12.67
2018-03-27T22:47:21.300Z,11.47
2018-03-27T22:49:49.567Z,12.47
2018-03-27T22:52:17.839Z,11.77
2018-03-27T22:54:46.098Z,11.63
2018-03-27T22:57:14.376Z,10.03
2018-03-27T22:59:42.663Z,10.17
2018-03-27T23:02:11.758Z,10.27
2018-03-27T23:04:40.175Z,10.53
2018-03-27T23:07:09.871Z,12.00
2018-03-27T23:09:38.097Z,15.20
2018-03-27T23:12:06.381Z,11.30
2018-03-27T23:14:34.640Z,10.63
2018-03-27T23:17:03.788Z,11.23
2018-03-27T23:19:32.067Z,10.03
2018-03-27T23:22:00.396Z,10.33
2018-03-27T23:24:29.707Z,10.37
2018-03-27T23:26:58.043Z,9.73
2018-03-27T23:29:26.460Z,10.43
2018-03-27T23:31:55.570Z,9.20
2018-03-27T23:34:23.858Z,10.20
2018-03-27T23:36:52.207Z,10.73
2018-03-27T23:39:21.237Z,9.90
2018-03-27T23:41:50.282Z,10.20
2018-03-27T23:44:18.547Z,10.37
2018-03-27T23:46:46.816Z,10.07
2018-03-27T23:49:15.842Z,8.17
2018-03-27T23:51:44.138Z,9.23
2018-03-27T23:54:12.481Z,9.17
2018-03-27T23:56:40.838Z,9.87
2018-03-27T23:59:09.071Z,9.93
